Time;durP1;ratioP1;P1;durP2;ratioP2;P2;SDS_P1;SDS_P2;PMS_P1;PMS_P2;Temp;Humidity;BMP_temperature;BMP_pressure;BME280_temperature;BME280_humidity;BME280_pressure;Samples;Min_cycle;Max_cycle;Signal;HPM_P1;HPM_P2
2023/04/13 00:00:38;;;;;;;1.03;0.90;;;6.80;99.90;;;;;;5012330;28;20467;-69
2023/04/13 00:03:04;;;;;;;2.23;1.00;;;6.80;99.90;;;;;;5011490;28;20524;-69
2023/04/13 00:05:30;;;;;;;1.13;0.90;;;6.80;99.90;;;;;;5012099;28;20619;-69
2023/04/13 00:07:56;;;;;;;3.60;0.70;;;6.80;99.90;;;;;;5005118;28;20441;-69
2023/04/13 00:10:22;;;;;;;1.37;1.00;;;6.70;99.90;;;;;;5012250;28;20556;-69
2023/04/13 00:12:49;;;;;;;0.97;0.80;;;6.60;99.90;;;;;;5012395;28;20435;-69
2023/04/13 00:15:16;;;;;;;1.17;1.00;;;6.60;99.90;;;;;;5013067;28;20488;-69
2023/04/13 00:17:42;;;;;;;1.37;1.10;;;6.50;99.90;;;;;;5012213;28;20888;-68
2023/04/13 00:20:12;;;;;;;1.93;0.90;;;6.50;99.90;;;;;;5012190;28;20457;-69
2023/04/13 00:22:39;;;;;;;0.80;0.70;;;6.60;99.90;;;;;;5001178;28;20449;-69
2023/04/13 00:25:05;;;;;;;1.00;0.77;;;6.60;99.90;;;;;;5011315;28;20555;-69
2023/04/13 00:27:31;;;;;;;0.77;0.77;;;6.60;99.90;;;;;;4996520;28;20541;-69
2023/04/13 00:29:57;;;;;;;2.53;2.37;;;6.60;99.90;;;;;;4994043;28;20537;-69
2023/04/13 00:32:23;;;;;;;0.90;0.70;;;6.70;99.90;;;;;;5018577;28;20202;-69
2023/04/13 00:34:49;;;;;;;1.23;0.90;;;6.70;99.90;;;;;;5013815;28;20197;-69
2023/04/13 00:37:14;;;;;;;0.70;0.70;;;6.70;99.90;;;;;;5012227;28;20441;-69
2023/04/13 00:39:42;;;;;;;0.70;0.70;;;6.70;99.90;;;;;;4997450;28;20651;-69
2023/04/13 00:42:08;;;;;;;0.87;0.70;;;6.70;99.90;;;;;;5011045;28;20217;-69
2023/04/13 00:44:34;;;;;;;2.30;1.10;;;6.70;99.90;;;;;;5011783;28;20815;-69
2023/04/13 00:47:03;;;;;;;2.20;2.00;;;6.70;99.90;;;;;;5011991;28;20449;-69
2023/04/13 00:49:32;;;;;;;3.97;0.67;;;6.60;99.90;;;;;;5010859;28;20437;-69
2023/04/13 00:51:59;;;;;;;1.60;0.80;;;6.60;99.90;;;;;;5007729;28;20461;-69
2023/04/13 00:54:25;;;;;;;0.70;0.70;;;6.60;99.90;;;;;;5009493;28;20442;-69
2023/04/13 00:56:53;;;;;;;0.87;0.80;;;6.60;99.90;;;;;;5011545;28;20445;-69
2023/04/13 00:59:19;;;;;;;1.00;0.70;;;6.60;99.90;;;;;;5010904;28;20201;-69
2023/04/13 01:01:49;;;;;;;1.53;1.03;;;6.50;99.90;;;;;;5011840;28;20979;-69
2023/04/13 01:04:18;;;;;;;1.57;0.60;;;6.50;99.90;;;;;;5004612;28;20806;-69
2023/04/13 01:06:51;;;;;;;0.63;0.60;;;6.50;99.90;;;;;;5010068;28;20962;-69
2023/04/13 01:09:39;;;;;;;1.10;1.00;;;6.50;99.90;;;;;;5006192;28;20441;-69
2023/04/13 01:12:12;;;;;;;0.70;0.70;;;6.50;99.90;;;;;;5009531;28;20492;-69
2023/04/13 01:14:51;;;;;;;1.47;0.77;;;6.50;99.90;;;;;;5010664;28;20799;-69
2023/04/13 01:17:22;;;;;;;4.00;1.00;;;6.50;99.90;;;;;;5004968;28;20445;-69
2023/04/13 01:19:58;;;;;;;0.80;0.80;;;6.50;99.90;;;;;;5010490;28;20476;-69
2023/04/13 01:22:28;;;;;;;0.90;0.90;;;6.40;99.90;;;;;;5009481;28;20497;-69
2023/04/13 01:25:21;;;;;;;3.03;0.83;;;6.30;99.90;;;;;;5009131;28;20446;-69
2023/04/13 01:27:46;;;;;;;0.70;0.70;;;6.30;99.90;;;;;;5001274;28;20446;-69
2023/04/13 01:30:20;;;;;;;1.00;0.60;;;6.30;99.90;;;;;;5008818;28;20460;-69
2023/04/13 01:32:47;;;;;;;1.67;1.30;;;6.30;99.90;;;;;;5015296;28;20239;-69
2023/04/13 01:35:13;;;;;;;1.10;1.00;;;6.20;99.90;;;;;;5010030;28;20438;-69
2023/04/13 01:37:42;;;;;;;0.70;0.70;;;6.10;99.90;;;;;;5009791;28;20441;-68
2023/04/13 01:40:12;;;;;;;0.80;0.80;;;6.10;99.90;;;;;;5006253;28;20222;-69
2023/04/13 01:42:38;;;;;;;1.30;1.10;;;6.10;99.90;;;;;;5011328;28;20437;-69
2023/04/13 01:45:26;;;;;;;4.90;3.17;;;6.00;99.90;;;;;;5011129;28;20477;-69
2023/04/13 01:48:05;;;;;;;0.87;0.87;;;6.00;99.90;;;;;;5011659;28;20465;-69
2023/04/13 01:50:36;;;;;;;1.73;0.70;;;6.00;99.90;;;;;;5009750;28;20481;-69
2023/04/13 01:53:10;;;;;;;4.63;1.10;;;5.90;99.90;;;;;;5012069;28;20457;-69
2023/04/13 01:55:38;;;;;;;1.77;0.83;;;5.90;99.90;;;;;;5012151;28;20939;-69
2023/04/13 01:58:05;;;;;;;1.30;0.80;;;5.90;99.90;;;;;;5008904;28;20442;-68
2023/04/13 02:00:34;;;;;;;1.10;0.80;;;5.90;99.90;;;;;;5006365;28;21109;-69
2023/04/13 02:03:03;;;;;;;1.70;0.80;;;5.90;99.90;;;;;;5009658;28;20437;-69
2023/04/13 02:05:28;;;;;;;0.90;0.83;;;5.90;99.90;;;;;;5006621;28;20484;-69
2023/04/13 02:07:54;;;;;;;0.93;0.63;;;6.00;99.90;;;;;;5019240;28;20961;-69
2023/04/13 02:10:19;;;;;;;2.20;1.00;;;6.00;99.90;;;;;;5002736;28;20199;-69
2023/04/13 02:12:45;;;;;;;1.00;0.90;;;5.90;99.90;;;;;;5009216;28;20170;-69
2023/04/13 02:15:10;;;;;;;1.90;0.70;;;5.90;99.90;;;;;;5009500;28;20183;-69
2023/04/13 02:17:36;;;;;;;1.57;0.70;;;5.90;99.90;;;;;;5009119;28;20563;-68
2023/04/13 02:20:06;;;;;;;0.80;0.80;;;5.80;99.90;;;;;;5009392;28;20210;-69
2023/04/13 02:22:32;;;;;;;1.80;1.00;;;5.90;99.90;;;;;;5012549;28;20181;-69
2023/04/13 02:24:57;;;;;;;1.10;0.77;;;5.90;99.90;;;;;;5013863;28;20795;-69
2023/04/13 02:27:23;;;;;;;0.70;0.70;;;6.00;99.90;;;;;;5014688;28;20528;-69
2023/04/13 02:29:51;;;;;;;0.83;0.60;;;6.00;99.90;;;;;;5008074;28;20297;-69
2023/04/13 02:32:16;;;;;;;1.63;0.60;;;6.10;99.90;;;;;;5012446;28;20202;-69
2023/04/13 02:34:42;;;;;;;2.13;0.90;;;6.10;99.90;;;;;;5013502;28;20433;-69
2023/04/13 02:37:08;;;;;;;0.83;0.83;;;6.10;99.90;;;;;;4997129;28;20193;-69
2023/04/13 02:39:33;;;;;;;1.13;0.83;;;6.00;99.90;;;;;;5014275;28;20540;-69
2023/04/13 02:41:59;;;;;;;1.90;0.93;;;6.00;99.90;;;;;;5012891;28;20453;-68
2023/04/13 02:44:24;;;;;;;1.00;0.90;;;5.90;99.90;;;;;;5014405;28;20234;-69
2023/04/13 02:46:50;;;;;;;1.40;1.07;;;5.80;99.90;;;;;;5014189;28;20269;-69
2023/04/13 02:49:15;;;;;;;0.97;0.80;;;5.80;99.90;;;;;;5013861;28;20206;-69
2023/04/13 02:51:41;;;;;;;1.67;1.00;;;5.80;99.90;;;;;;5012695;28;20586;-68
2023/04/13 02:54:09;;;;;;;3.27;0.90;;;5.80;99.90;;;;;;5014125;28;20253;-68
2023/04/13 02:56:34;;;;;;;1.70;1.00;;;5.80;99.90;;;;;;5014677;28;20266;-68
2023/04/13 02:59:00;;;;;;;3.30;1.27;;;5.80;99.90;;;;;;5013930;28;21038;-68
2023/04/13 03:01:25;;;;;;;1.20;1.10;;;5.70;99.90;;;;;;5013437;28;20736;-69
2023/04/13 03:03:51;;;;;;;1.43;0.83;;;5.70;99.90;;;;;;5013165;28;20186;-69
2023/04/13 03:06:16;;;;;;;1.87;1.27;;;5.70;99.90;;;;;;5012283;28;20225;-69
2023/04/13 03:08:42;;;;;;;5.07;0.83;;;5.70;99.90;;;;;;5013135;28;20245;-69
2023/04/13 03:11:08;;;;;;;0.90;0.80;;;5.60;99.90;;;;;;5013983;28;20735;-69
2023/04/13 03:13:34;;;;;;;0.90;0.90;;;5.60;99.90;;;;;;5006356;28;20176;-69
2023/04/13 03:15:59;;;;;;;0.70;0.70;;;5.60;99.90;;;;;;5011840;28;20816;-69
2023/04/13 03:18:26;;;;;;;2.00;0.80;;;5.60;99.90;;;;;;5009332;28;20220;-69
2023/04/13 03:20:52;;;;;;;1.27;0.67;;;5.60;99.90;;;;;;5010516;28;20198;-69
2023/04/13 03:23:18;;;;;;;0.90;0.90;;;5.60;99.90;;;;;;5004858;28;20793;-69
2023/04/13 03:25:44;;;;;;;2.80;1.07;;;5.60;99.90;;;;;;4998987;28;20473;-69
2023/04/13 03:28:10;;;;;;;2.70;1.93;;;5.60;99.90;;;;;;5013169;28;20969;-69
2023/04/13 03:30:35;;;;;;;1.20;1.10;;;5.60;99.90;;;;;;5013247;28;20703;-69
2023/04/13 03:33:01;;;;;;;2.30;1.70;;;5.60;99.90;;;;;;5008632;28;20664;-69
2023/04/13 03:35:27;;;;;;;3.03;1.07;;;5.60;99.90;;;;;;5014320;28;20679;-69
2023/04/13 03:37:52;;;;;;;2.00;0.90;;;5.60;99.90;;;;;;5023980;28;20190;-69
2023/04/13 03:40:18;;;;;;;2.70;1.10;;;5.70;99.90;;;;;;5029758;23;20222;-67
2023/04/13 03:42:43;;;;;;;1.20;1.10;;;5.70;99.90;;;;;;4973469;28;20211;-67
2023/04/13 03:45:09;;;;;;;1.57;0.80;;;5.70;99.90;;;;;;4974187;28;20180;-67
2023/04/13 03:47:35;;;;;;;2.77;1.10;;;5.70;99.90;;;;;;4977595;28;20187;-67
2023/04/13 03:50:02;;;;;;;1.00;0.90;;;5.70;99.90;;;;;;4975078;28;20806;-67
2023/04/13 03:52:28;;;;;;;2.57;0.93;;;5.70;99.90;;;;;;4972581;28;20212;-67
2023/04/13 03:54:53;;;;;;;1.80;0.90;;;5.70;99.90;;;;;;4965182;28;20808;-67
2023/04/13 03:57:20;;;;;;;1.80;0.90;;;5.70;99.90;;;;;;4973291;28;20646;-67
2023/04/13 03:59:46;;;;;;;0.93;0.80;;;5.70;99.90;;;;;;4970487;28;20211;-67
2023/04/13 04:02:11;;;;;;;1.10;1.00;;;5.70;99.90;;;;;;4971921;28;20491;-67
2023/04/13 04:04:37;;;;;;;1.97;1.30;;;5.70;99.90;;;;;;4971295;28;20267;-67
2023/04/13 04:07:02;;;;;;;1.43;1.10;;;5.70;99.90;;;;;;4972251;28;20193;-67
2023/04/13 04:09:28;;;;;;;3.50;1.73;;;5.70;99.90;;;;;;4976799;28;20218;-67
2023/04/13 04:11:54;;;;;;;1.00;1.00;;;5.80;99.90;;;;;;4971641;28;20212;-67
2023/04/13 04:14:19;;;;;;;2.00;0.80;;;5.80;99.90;;;;;;4970678;28;20199;-67
2023/04/13 04:16:45;;;;;;;1.20;0.90;;;5.80;99.90;;;;;;4966550;28;20556;-66
2023/04/13 04:19:10;;;;;;;1.47;1.20;;;5.90;99.90;;;;;;4972223;28;20238;-67
2023/04/13 04:21:36;;;;;;;1.37;1.23;;;5.90;99.90;;;;;;4974248;28;20259;-67
2023/04/13 04:24:05;;;;;;;2.27;1.50;;;5.90;99.90;;;;;;4970345;28;20645;-67
2023/04/13 04:26:31;;;;;;;1.43;1.33;;;5.90;99.90;;;;;;4970756;28;20212;-67
2023/04/13 04:29:02;;;;;;;2.13;1.13;;;5.90;99.90;;;;;;4969976;28;20483;-67
2023/04/13 04:31:33;;;;;;;1.97;1.80;;;5.90;99.90;;;;;;4974437;28;20836;-67
2023/04/13 04:34:00;;;;;;;6.83;2.30;;;6.00;99.90;;;;;;4983102;28;20442;-67
2023/04/13 04:36:25;;;;;;;2.37;1.30;;;6.00;99.90;;;;;;4971294;28;20494;-67
2023/04/13 04:38:56;;;;;;;4.83;1.23;;;6.00;99.90;;;;;;4982739;28;20498;-67
2023/04/13 04:41:25;;;;;;;1.10;1.00;;;6.00;99.90;;;;;;4979256;28;20263;-67
2023/04/13 04:43:55;;;;;;;4.33;1.40;;;6.00;99.90;;;;;;4966311;28;20427;-67
2023/04/13 04:46:24;;;;;;;4.00;1.40;;;6.00;99.90;;;;;;4973956;28;20898;-67
2023/04/13 04:48:50;;;;;;;2.60;1.30;;;6.00;99.90;;;;;;4982365;28;20521;-67
2023/04/13 04:51:16;;;;;;;5.50;1.40;;;6.00;99.90;;;;;;4978607;28;20477;-67
2023/04/13 04:53:41;;;;;;;1.17;1.07;;;6.00;99.90;;;;;;4981604;28;20940;-67
2023/04/13 04:56:07;;;;;;;6.23;1.60;;;6.00;99.90;;;;;;4977642;28;20607;-67
2023/04/13 04:58:33;;;;;;;1.53;1.30;;;6.00;99.90;;;;;;4967235;28;20649;-67
2023/04/13 05:00:58;;;;;;;2.00;1.20;;;6.00;99.90;;;;;;4970063;28;20514;-67
2023/04/13 05:03:24;;;;;;;2.90;1.80;;;6.10;99.90;;;;;;4972307;28;20184;-67
2023/04/13 05:05:50;;;;;;;3.33;1.40;;;6.10;99.90;;;;;;4967991;28;20180;-67
2023/04/13 05:08:15;;;;;;;2.47;1.37;;;6.10;99.90;;;;;;4967987;28;20180;-67
2023/04/13 05:10:45;;;;;;;3.70;1.20;;;6.20;99.90;;;;;;4973227;28;20216;-67
2023/04/13 05:13:11;;;;;;;4.37;1.63;;;6.20;99.90;;;;;;4970931;28;20266;-67
2023/04/13 05:15:37;;;;;;;4.20;1.37;;;6.20;99.90;;;;;;4970627;28;20435;-67
2023/04/13 05:18:04;;;;;;;3.13;1.33;;;6.20;99.90;;;;;;4971728;28;20517;-67
2023/04/13 05:20:31;;;;;;;4.50;1.37;;;6.30;99.90;;;;;;4975631;28;20199;-67
2023/04/13 05:22:58;;;;;;;2.23;1.20;;;6.30;99.90;;;;;;4969879;28;20994;-68
2023/04/13 05:25:23;;;;;;;2.17;1.27;;;6.30;99.90;;;;;;4970853;28;20499;-69
2023/04/13 05:27:49;;;;;;;4.97;1.30;;;6.30;99.90;;;;;;4972733;28;20520;-70
2023/04/13 05:30:15;;;;;;;2.60;1.13;;;6.30;99.90;;;;;;4971703;28;20176;-69
2023/04/13 05:32:42;;;;;;;4.87;1.37;;;6.30;99.90;;;;;;4969570;28;20478;-68
2023/04/13 05:35:09;;;;;;;4.57;1.20;;;6.40;99.90;;;;;;4970329;28;20203;-69
2023/04/13 05:37:35;;;;;;;1.57;1.17;;;6.40;99.90;;;;;;4962978;28;20451;-69
2023/04/13 05:40:07;;;;;;;1.10;1.00;;;6.50;99.90;;;;;;4972435;28;20533;-68
2023/04/13 05:42:32;;;;;;;4.77;1.40;;;6.50;99.90;;;;;;4964788;28;20470;-68
2023/04/13 05:44:57;;;;;;;1.60;1.47;;;6.50;99.90;;;;;;4969573;28;20480;-69
2023/04/13 05:47:23;;;;;;;2.10;1.30;;;6.50;99.90;;;;;;4969183;28;20215;-68
2023/04/13 05:49:49;;;;;;;2.53;1.60;;;6.40;99.90;;;;;;4967641;28;20180;-68
2023/04/13 05:52:15;;;;;;;2.67;1.30;;;6.50;99.90;;;;;;4973234;28;20212;-68
2023/04/13 05:54:40;;;;;;;5.97;1.73;;;6.50;99.90;;;;;;4973457;28;20770;-68
2023/04/13 05:57:06;;;;;;;1.47;1.30;;;6.40;99.90;;;;;;4972628;28;20203;-68
2023/04/13 05:59:32;;;;;;;2.20;1.37;;;6.40;99.90;;;;;;4972014;28;20692;-68
2023/04/13 06:01:58;;;;;;;4.50;1.77;;;6.50;99.90;;;;;;4973122;28;20254;-68
2023/04/13 06:04:25;;;;;;;2.07;1.30;;;6.50;99.90;;;;;;4973194;28;20593;-68
2023/04/13 06:06:51;;;;;;;5.90;1.50;;;6.50;99.90;;;;;;4973325;28;20506;-68
2023/04/13 06:09:17;;;;;;;1.90;1.10;;;6.50;99.90;;;;;;4972534;28;20838;-68
2023/04/13 06:11:43;;;;;;;1.97;1.30;;;6.60;99.90;;;;;;4972306;28;20200;-68
2023/04/13 06:14:08;;;;;;;5.77;1.60;;;6.70;99.90;;;;;;4962125;28;20468;-68
2023/04/13 06:16:34;;;;;;;3.43;1.13;;;6.70;99.90;;;;;;4953709;29;20594;-68
2023/04/13 06:19:00;;;;;;;3.67;1.30;;;6.80;99.90;;;;;;4953038;29;20161;-68
2023/04/13 06:21:27;;;;;;;3.63;1.10;;;6.80;99.90;;;;;;4953743;29;20280;-68
2023/04/13 06:23:52;;;;;;;4.60;1.30;;;6.80;99.90;;;;;;4953827;29;20169;-68
2023/04/13 06:26:18;;;;;;;2.27;1.73;;;6.90;99.90;;;;;;4958399;28;20816;-68
2023/04/13 06:28:44;;;;;;;2.07;0.90;;;6.90;99.90;;;;;;4972345;28;20172;-68
2023/04/13 06:31:11;;;;;;;2.17;1.50;;;7.00;99.90;;;;;;4972643;28;20735;-67
2023/04/13 06:33:36;;;;;;;2.57;1.50;;;7.00;99.90;;;;;;4972075;28;20197;-68
2023/04/13 06:36:02;;;;;;;3.73;1.40;;;7.00;99.90;;;;;;4972747;28;20447;-68
2023/04/13 06:38:27;;;;;;;3.30;1.20;;;7.00;99.90;;;;;;4963291;28;20251;-68
2023/04/13 06:40:53;;;;;;;1.87;1.50;;;7.10;99.90;;;;;;4970110;28;20314;-68
2023/04/13 06:43:18;;;;;;;2.17;1.10;;;7.20;99.90;;;;;;4975506;28;20303;-68
2023/04/13 06:45:46;;;;;;;2.80;1.20;;;7.20;99.90;;;;;;4991921;28;20176;-68
2023/04/13 06:48:12;;;;;;;4.07;1.60;;;7.40;99.90;;;;;;4981799;28;20204;-68
2023/04/13 06:50:38;;;;;;;4.33;1.20;;;7.40;99.90;;;;;;4963170;28;20835;-69
2023/04/13 06:53:04;;;;;;;8.27;1.70;;;7.50;99.90;;;;;;4964420;28;20188;-68
2023/04/13 06:55:29;;;;;;;3.93;1.40;;;7.60;99.90;;;;;;4970399;28;20192;-68
2023/04/13 06:57:54;;;;;;;5.33;1.57;;;7.70;99.90;;;;;;4972068;28;20646;-68
2023/04/13 07:00:20;;;;;;;2.50;1.00;;;7.90;99.90;;;;;;4971329;28;20199;-67
2023/04/13 07:02:46;;;;;;;3.10;1.30;;;8.00;99.90;;;;;;4971791;28;20203;-68
2023/04/13 07:05:11;;;;;;;3.27;1.40;;;8.10;99.90;;;;;;4964214;28;20180;-68
2023/04/13 07:07:37;;;;;;;3.70;1.33;;;8.30;99.90;;;;;;4972159;28;20180;-69
2023/04/13 07:10:03;;;;;;;4.93;1.13;;;8.50;99.90;;;;;;4975044;28;20230;-68
2023/04/13 07:12:29;;;;;;;2.20;1.00;;;8.40;99.90;;;;;;4975821;28;20208;-68
2023/04/13 07:14:54;;;;;;;3.30;1.20;;;8.20;99.90;;;;;;4974723;28;20423;-68
2023/04/13 07:17:20;;;;;;;1.90;1.50;;;8.10;99.90;;;;;;4975236;28;20207;-68
2023/04/13 07:19:46;;;;;;;1.70;1.20;;;8.00;99.90;;;;;;4968253;28;20626;-69
2023/04/13 07:22:13;;;;;;;3.60;1.23;;;7.90;99.90;;;;;;4975345;28;20283;-68
2023/04/13 07:24:38;;;;;;;3.47;1.17;;;7.90;99.90;;;;;;4975699;28;20476;-68
2023/04/13 07:27:04;;;;;;;4.50;1.37;;;7.90;99.90;;;;;;4975689;28;20420;-69
2023/04/13 07:29:30;;;;;;;2.03;1.00;;;8.00;99.90;;;;;;4970511;28;20319;-68
2023/04/13 07:32:01;;;;;;;3.07;1.40;;;8.00;99.90;;;;;;4966990;28;20471;-68
2023/04/13 07:34:27;;;;;;;3.93;1.30;;;8.00;99.90;;;;;;4968860;28;20176;-68
2023/04/13 07:36:53;;;;;;;5.87;1.50;;;7.90;99.90;;;;;;4975175;28;20419;-70
2023/04/13 07:39:18;;;;;;;4.60;1.43;;;7.80;99.90;;;;;;4974191;28;20463;-69
2023/04/13 07:41:45;;;;;;;3.53;1.20;;;7.80;99.90;;;;;;4975154;28;20219;-69
2023/04/13 07:44:10;;;;;;;5.50;1.50;;;8.00;99.90;;;;;;4985269;28;20397;-69
2023/04/13 07:46:37;;;;;;;4.93;2.00;;;8.20;99.90;;;;;;4978115;28;20439;-69
2023/04/13 07:49:02;;;;;;;2.80;1.40;;;8.20;99.90;;;;;;4973531;28;20231;-69
2023/04/13 07:51:28;;;;;;;2.97;1.40;;;8.20;99.90;;;;;;4973044;28;20456;-70
2023/04/13 07:53:54;;;;;;;1.93;1.40;;;8.10;99.90;;;;;;4975395;28;20172;-69
2023/04/13 07:56:21;;;;;;;4.73;1.50;;;8.10;99.90;;;;;;4975414;28;20439;-68
2023/04/13 07:58:47;;;;;;;3.63;1.30;;;8.00;99.90;;;;;;4973590;28;20450;-68
2023/04/13 08:01:12;;;;;;;2.93;1.63;;;8.00;99.90;;;;;;4975235;28;20439;-69
2023/04/13 08:03:38;;;;;;;4.30;1.83;;;8.00;99.90;;;;;;4975215;28;20177;-68
2023/04/13 08:06:07;;;;;;;7.77;1.70;;;8.20;99.90;;;;;;4957304;28;20172;-69
2023/04/13 08:08:33;;;;;;;3.67;1.50;;;8.50;99.90;;;;;;4974539;28;20362;-68
2023/04/13 08:10:59;;;;;;;4.80;1.70;;;8.80;99.90;;;;;;4974897;28;20517;-69
2023/04/13 08:13:27;;;;;;;4.70;1.80;;;8.80;99.90;;;;;;4969645;28;20267;-68
2023/04/13 08:15:55;;;;;;;3.43;1.70;;;9.20;99.90;;;;;;4975001;28;20172;-68
2023/04/13 08:18:27;;;;;;;6.43;1.43;;;9.70;99.90;;;;;;4974250;28;20415;-68
2023/04/13 08:20:53;;;;;;;8.63;2.00;;;10.00;99.90;;;;;;4974583;28;20532;-68
2023/04/13 08:23:20;;;;;;;2.93;1.47;;;10.20;99.90;;;;;;4974650;28;20435;-68
2023/04/13 08:25:46;;;;;;;3.60;1.53;;;10.40;99.90;;;;;;4972915;28;20447;-68
2023/04/13 08:28:12;;;;;;;3.37;1.40;;;10.80;99.90;;;;;;4972935;28;20610;-69
2023/04/13 08:30:37;;;;;;;2.93;1.70;;;11.00;99.90;;;;;;4974172;28;20530;-68
2023/04/13 08:33:03;;;;;;;3.93;1.43;;;11.10;99.90;;;;;;4974730;28;20258;-69
2023/04/13 08:35:28;;;;;;;5.20;2.00;;;11.00;99.90;;;;;;4974713;28;20208;-68
2023/04/13 08:37:54;;;;;;;5.60;2.20;;;10.70;99.90;;;;;;4974732;28;20164;-69
2023/04/13 08:40:21;;;;;;;6.27;2.20;;;10.30;99.90;;;;;;4971965;28;20620;-68
2023/04/13 08:42:47;;;;;;;3.20;2.20;;;9.80;99.90;;;;;;4974633;28;20176;-69
2023/04/13 08:45:13;;;;;;;3.27;2.33;;;9.30;99.90;;;;;;4955251;28;20925;-68
2023/04/13 08:47:40;;;;;;;4.10;1.97;;;9.20;99.90;;;;;;4974619;28;20175;-68
2023/04/13 08:50:07;;;;;;;1.73;1.50;;;9.30;99.90;;;;;;4973569;28;20467;-69
2023/04/13 08:52:34;;;;;;;2.30;1.47;;;9.30;99.90;;;;;;4973267;28;20471;-67
2023/04/13 08:55:02;;;;;;;5.97;1.50;;;9.30;99.90;;;;;;4966124;28;20482;-68
2023/04/13 08:57:29;;;;;;;4.27;1.57;;;9.40;99.90;;;;;;4973666;28;20455;-68
2023/04/13 08:59:56;;;;;;;7.10;1.87;;;9.30;99.90;;;;;;4973492;28;20934;-69
2023/04/13 09:02:25;;;;;;;4.83;1.47;;;9.30;99.90;;;;;;4974204;28;20477;-69
2023/04/13 09:04:59;;;;;;;3.00;1.50;;;9.30;99.90;;;;;;4973080;28;20432;-69
2023/04/13 09:07:28;;;;;;;5.33;1.60;;;9.40;99.90;;;;;;4965657;28;20442;-69
2023/04/13 09:09:59;;;;;;;3.57;1.77;;;9.40;99.90;;;;;;4972987;28;20423;-68
2023/04/13 09:12:26;;;;;;;2.30;1.40;;;9.50;99.90;;;;;;4973463;28;20548;-69
2023/04/13 09:14:51;;;;;;;2.10;1.30;;;9.60;99.90;;;;;;4970353;28;20439;-68
2023/04/13 09:17:29;;;;;;;8.70;1.97;;;9.70;99.90;;;;;;4972485;28;20430;-68
2023/04/13 09:19:56;;;;;;;6.10;1.60;;;10.00;99.90;;;;;;4955091;28;20176;-69
2023/04/13 09:22:23;;;;;;;4.00;1.53;;;10.40;99.90;;;;;;4960520;28;20551;-69
2023/04/13 09:24:49;;;;;;;5.73;1.83;;;10.80;99.90;;;;;;4954488;28;20478;-68
2023/04/13 09:27:22;;;;;;;7.80;1.97;;;11.00;99.90;;;;;;4954204;28;20428;-69
2023/04/13 09:29:52;;;;;;;4.00;1.40;;;12.00;99.90;;;;;;4953224;29;20184;-68
2023/04/13 09:32:22;;;;;;;3.03;1.40;;;12.50;99.90;;;;;;4953263;28;20492;-69
2023/04/13 09:35:06;;;;;;;2.80;1.40;;;12.70;99.90;;;;;;4940458;28;20437;-69
2023/04/13 09:37:33;;;;;;;7.37;3.83;;;12.30;99.90;;;;;;4972197;28;20506;-68
2023/04/13 09:40:13;;;;;;;5.93;2.07;;;11.90;99.90;;;;;;4972548;28;20913;-69
2023/04/13 09:42:40;;;;;;;3.50;2.03;;;11.90;99.90;;;;;;5029780;23;20841;-70
2023/04/13 09:45:07;;;;;;;5.27;1.97;;;11.50;99.90;;;;;;5011982;28;20426;-70
2023/04/13 09:47:39;;;;;;;6.33;1.70;;;11.20;99.90;;;;;;5012584;28;20956;-70
2023/04/13 09:50:21;;;;;;;2.80;1.50;;;11.10;99.90;;;;;;5009559;28;20484;-70
2023/04/13 09:52:57;;;;;;;3.70;2.07;;;11.10;99.90;;;;;;5011727;28;20520;-70
2023/04/13 09:55:23;;;;;;;3.60;1.43;;;11.00;99.90;;;;;;5012016;28;20421;-70
2023/04/13 09:57:48;;;;;;;3.70;1.33;;;10.90;99.90;;;;;;5012195;28;20426;-70
2023/04/13 10:00:19;;;;;;;4.43;1.60;;;10.70;99.90;;;;;;5011802;28;20422;-68
2023/04/13 10:02:47;;;;;;;6.30;1.80;;;10.80;99.90;;;;;;5011775;28;20199;-69
2023/04/13 10:05:13;;;;;;;1.87;1.40;;;10.60;99.90;;;;;;5012326;28;20430;-70
2023/04/13 10:07:43;;;;;;;4.30;1.30;;;10.60;99.90;;;;;;5003258;28;20451;-67
2023/04/13 10:10:09;;;;;;;6.40;1.87;;;10.80;99.90;;;;;;4992295;28;20285;-70
2023/04/13 10:12:37;;;;;;;3.43;1.70;;;10.80;99.90;;;;;;5011788;28;20453;-70
2023/04/13 10:15:22;;;;;;;2.10;1.40;;;10.80;99.90;;;;;;5011716;28;20449;-70
2023/04/13 10:18:37;;;;;;;4.67;1.80;;;10.90;99.90;;;;;;5008772;28;20437;-71
2023/04/13 10:21:04;;;;;;;3.60;1.60;;;11.10;99.90;;;;;;4985666;28;20912;-70
2023/04/13 10:23:32;;;;;;;3.23;1.33;;;11.30;99.90;;;;;;4994145;28;20417;-69
2023/04/13 10:25:59;;;;;;;4.80;2.17;;;11.30;99.90;;;;;;5011632;28;20421;-72
2023/04/13 10:28:26;;;;;;;5.50;1.87;;;11.40;99.90;;;;;;5010867;28;20441;-71
2023/04/13 10:30:55;;;;;;;1.83;1.40;;;11.50;99.90;;;;;;4993170;28;20469;-71
2023/04/13 10:33:20;;;;;;;2.60;2.37;;;11.80;99.90;;;;;;5011605;28;20433;-71
2023/04/13 10:35:56;;;;;;;3.93;2.00;;;11.80;99.90;;;;;;5011677;28;20418;-70
2023/04/13 10:38:22;;;;;;;3.00;1.40;;;11.80;99.90;;;;;;5011022;28;20179;-70
2023/04/13 10:40:49;;;;;;;3.37;1.50;;;11.80;99.90;;;;;;5011473;28;20422;-70
2023/04/13 10:43:31;;;;;;;4.73;1.60;;;11.70;99.90;;;;;;5013758;28;20246;-70
2023/04/13 10:46:11;;;;;;;3.23;1.70;;;11.90;99.90;;;;;;5013707;28;20789;-70
2023/04/13 10:48:40;;;;;;;5.00;1.83;;;12.40;99.90;;;;;;5014493;28;20418;-70
2023/04/13 10:51:06;;;;;;;7.03;2.13;;;12.50;99.90;;;;;;5015189;28;20465;-70
2023/04/13 10:53:33;;;;;;;6.90;2.37;;;12.40;99.90;;;;;;5015458;28;20942;-70
2023/04/13 10:56:00;;;;;;;3.77;2.20;;;12.30;99.90;;;;;;5012548;28;20671;-71
2023/04/13 10:58:27;;;;;;;4.77;2.70;;;12.00;99.90;;;;;;5012994;28;20425;-70
2023/04/13 11:00:53;;;;;;;3.50;1.47;;;11.90;99.90;;;;;;5014943;28;20531;-70
2023/04/13 11:03:19;;;;;;;4.83;2.00;;;11.60;99.90;;;;;;5015092;28;20430;-71
2023/04/13 11:05:46;;;;;;;3.13;1.40;;;11.50;99.90;;;;;;5015425;28;20432;-70
2023/04/13 11:08:20;;;;;;;9.00;1.80;;;11.30;99.90;;;;;;5021332;28;20425;-70
2023/04/13 11:10:53;;;;;;;4.17;2.03;;;11.10;99.90;;;;;;5015710;28;20449;-69
2023/04/13 11:13:20;;;;;;;4.90;2.13;;;10.90;99.90;;;;;;5009878;28;20425;-69
2023/04/13 11:15:48;;;;;;;3.63;1.97;;;10.90;99.90;;;;;;5016468;28;20994;-69
2023/04/13 11:18:24;;;;;;;3.57;1.87;;;10.80;99.90;;;;;;5016178;28;20453;-70
2023/04/13 11:20:50;;;;;;;5.00;1.73;;;10.70;99.90;;;;;;5016172;28;20429;-70
2023/04/13 11:23:17;;;;;;;4.90;2.47;;;10.70;99.90;;;;;;5017966;28;20993;-69
2023/04/13 11:25:54;;;;;;;3.13;2.37;;;10.70;99.90;;;;;;5016720;28;20232;-69
2023/04/13 11:28:25;;;;;;;4.87;1.83;;;10.70;99.90;;;;;;5007196;28;20934;-69
2023/04/13 11:30:52;;;;;;;4.17;2.30;;;10.70;99.90;;;;;;5014348;28;20973;-69
2023/04/13 11:33:26;;;;;;;2.33;1.70;;;10.60;99.90;;;;;;5014482;28;20422;-69
2023/04/13 11:35:57;;;;;;;3.93;1.80;;;10.90;99.90;;;;;;5015073;28;20902;-69
2023/04/13 11:38:23;;;;;;;4.63;1.23;;;11.10;99.90;;;;;;5013044;28;20441;-69
2023/04/13 11:40:50;;;;;;;3.23;1.00;;;10.80;99.90;;;;;;5014067;28;20437;-69
2023/04/13 11:43:17;;;;;;;1.53;0.80;;;10.20;99.90;;;;;;5014604;28;20329;-69
2023/04/13 11:45:43;;;;;;;2.10;1.10;;;9.90;99.90;;;;;;5014153;28;20433;-69
2023/04/13 11:48:09;;;;;;;1.70;1.20;;;9.80;99.90;;;;;;5012843;28;20512;-70
2023/04/13 11:50:36;;;;;;;3.33;1.60;;;10.00;99.90;;;;;;5014049;28;20512;-70
2023/04/13 11:53:02;;;;;;;4.93;2.30;;;10.70;99.90;;;;;;5012204;28;20194;-70
2023/04/13 11:55:28;;;;;;;2.30;1.60;;;12.40;99.90;;;;;;5013310;28;20426;-71
2023/04/13 11:57:54;;;;;;;5.80;1.93;;;14.80;99.90;;;;;;5013930;28;20532;-70
2023/04/13 12:00:27;;;;;;;2.10;1.60;;;15.90;99.90;;;;;;4995645;28;20497;-70
2023/04/13 12:02:56;;;;;;;3.47;1.97;;;16.60;99.90;;;;;;5013961;28;20191;-70
2023/04/13 12:05:25;;;;;;;2.13;1.40;;;17.30;99.90;;;;;;5014106;28;20430;-70
2023/04/13 12:07:53;;;;;;;3.63;1.67;;;16.10;99.90;;;;;;5012907;28;20444;-70
2023/04/13 12:10:27;;;;;;;1.73;1.40;;;14.60;99.90;;;;;;5013359;28;20437;-70
2023/04/13 12:13:01;;;;;;;2.83;2.00;;;14.20;99.90;;;;;;5013605;28;20469;-69
2023/04/13 12:15:28;;;;;;;5.23;2.53;;;13.60;99.90;;;;;;5013815;28;20410;-70
2023/04/13 12:17:55;;;;;;;4.80;2.97;;;13.00;99.90;;;;;;5013893;28;20834;-69
2023/04/13 12:20:21;;;;;;;5.77;4.07;;;12.30;99.90;;;;;;5012311;28;20437;-69
2023/04/13 12:22:46;;;;;;;6.83;3.57;;;11.80;99.90;;;;;;5013563;28;20472;-69
2023/04/13 12:25:22;;;;;;;12.83;3.20;;;11.40;99.90;;;;;;5013616;28;20430;-70
2023/04/13 12:27:52;;;;;;;5.93;3.83;;;11.10;99.90;;;;;;5013626;28;20198;-69
2023/04/13 12:30:19;;;;;;;6.70;3.60;;;11.00;99.90;;;;;;5012998;28;20417;-70
2023/04/13 12:32:46;;;;;;;6.40;3.87;;;11.10;99.90;;;;;;5013057;28;20469;-70
2023/04/13 12:35:13;;;;;;;3.07;2.10;;;11.50;99.90;;;;;;5012625;28;20437;-70
2023/04/13 12:37:42;;;;;;;3.40;2.73;;;12.90;99.90;;;;;;5013593;28;20453;-70
2023/04/13 12:40:11;;;;;;;4.17;1.43;;;13.30;99.90;;;;;;5012579;28;20421;-70
2023/04/13 12:42:46;;;;;;;4.17;1.60;;;13.20;99.90;;;;;;5012984;28;20975;-70
2023/04/13 12:45:13;;;;;;;3.00;1.50;;;12.80;99.90;;;;;;5013438;28;20445;-69
2023/04/13 12:47:38;;;;;;;3.40;1.40;;;12.60;99.90;;;;;;5013156;28;20492;-70
2023/04/13 12:50:09;;;;;;;1.83;1.60;;;12.40;99.90;;;;;;5011723;28;20958;-69
2023/04/13 12:52:37;;;;;;;10.30;2.80;;;12.30;99.90;;;;;;5013129;28;20215;-69
2023/04/13 12:55:02;;;;;;;2.80;2.00;;;11.90;99.90;;;;;;5012753;28;20520;-69